Decoded Metar for UTAA (ASHKHABAD in RUSSIA) (IATA:ASB) | Meteo·Mobile Aviation Weather
aviador You're here:

UTAA Decoded Metar

ASHKHABAD in RUSSIA
Report Time2019-04-25 21:00:00
UTC Time2019-04-25 22:05:10
Flight Rules vfr VFR
Wind230° at 04 kt
W.Decomp.*RWY 29: 1.8 kt HW 3.6 kt LCW
RWY 30: 1.1 kt HW 3.8 kt LCW
Visibility9999 m
Phenomena:N/A
Clouds:Broken 089 Hf
Expected CloudBase > 2,000 ft AGL from Temp-Dew spread
Ceiling8,900 ft
Temp10°C (ISA -4)
Dew Point05°C (71% RH)
AAT7.4°C
QNH1026 hPa
Density Alt-62 ft
Elevation689 ft
Report Wrong Elevation
Raw Report
UTAA 252100Z 23004KT 9999 BKN089 10/05 Q1026 R88/CLRD70 NOSIG=

Extra information for UTAA:More info

Metar Taf Metar & Taf Last 4 Metars F.Rules Stats Wind Profile Meteogram Temp Stats Airport Information Weather charts Add Link Nearby VenuesMetar ALERT Operation Metar Decoded Social comments